sensor_id;sensor_type;location;lat;lon;timestamp;pressure;altitude;pressure_sealevel;temperature;humidity
19286;BME280;9776;50.798;6.430;2024-03-23T00:54:17;99622.03;;;9.97;70.59
19286;BME280;9776;50.798;6.430;2024-03-23T00:56:44;99617.25;;;9.92;70.75
19286;BME280;9776;50.798;6.430;2024-03-23T00:59:10;99619.88;;;9.92;70.53
19286;BME280;9776;50.798;6.430;2024-03-23T01:01:38;99608.53;;;9.92;70.73
19286;BME280;9776;50.798;6.430;2024-03-23T01:04:05;99606.38;;;9.95;70.62
19286;BME280;9776;50.798;6.430;2024-03-23T01:06:31;99616.94;;;9.95;70.69
19286;BME280;9776;50.798;6.430;2024-03-23T01:08:58;99611.47;;;9.89;70.81
19286;BME280;9776;50.798;6.430;2024-03-23T01:11:24;99610.81;;;9.87;71.05
19286;BME280;9776;50.798;6.430;2024-03-23T01:13:50;99609.47;;;9.83;71.01
19286;BME280;9776;50.798;6.430;2024-03-23T01:16:17;99611.09;;;9.76;71.29
19286;BME280;9776;50.798;6.430;2024-03-23T01:18:44;99616.06;;;9.79;71.29
19286;BME280;9776;50.798;6.430;2024-03-23T01:21:12;99610.97;;;9.77;71.34
19286;BME280;9776;50.798;6.430;2024-03-23T01:23:38;99605.19;;;9.74;71.41
19286;BME280;9776;50.798;6.430;2024-03-23T01:26:04;99604.53;;;9.72;71.23
19286;BME280;9776;50.798;6.430;2024-03-23T01:28:30;99605.16;;;9.65;71.43
19286;BME280;9776;50.798;6.430;2024-03-23T01:30:57;99613.53;;;9.61;71.73
19286;BME280;9776;50.798;6.430;2024-03-23T01:33:23;99597.72;;;9.61;71.59
19286;BME280;9776;50.798;6.430;2024-03-23T01:35:52;99585.91;;;9.65;71.45
19286;BME280;9776;50.798;6.430;2024-03-23T01:38:18;99600.22;;;9.62;71.42
19286;BME280;9776;50.798;6.430;2024-03-23T01:40:45;99593.28;;;9.61;71.52
19286;BME280;9776;50.798;6.430;2024-03-23T01:43:13;99620.75;;;9.51;71.82
19286;BME280;9776;50.798;6.430;2024-03-23T01:45:41;99622.06;;;9.47;71.98
19286;BME280;9776;50.798;6.430;2024-03-23T01:48:07;99622.03;;;9.39;71.97
19286;BME280;9776;50.798;6.430;2024-03-23T01:50:34;99608.03;;;9.38;71.96
19286;BME280;9776;50.798;6.430;2024-03-23T01:53:02;99618.41;;;9.32;72.04
19286;BME280;9776;50.798;6.430;2024-03-23T01:55:32;99613.13;;;9.32;71.77
19286;BME280;9776;50.798;6.430;2024-03-23T01:57:57;99608.84;;;9.31;71.81
19286;BME280;9776;50.798;6.430;2024-03-23T02:00:25;99605.56;;;9.37;71.08
19286;BME280;9776;50.798;6.430;2024-03-23T02:02:53;99612.16;;;9.41;70.81
19286;BME280;9776;50.798;6.430;2024-03-23T02:05:21;99602.97;;;9.45;70.49
19286;BME280;9776;50.798;6.430;2024-03-23T02:07:48;99601.31;;;9.44;70.15
19286;BME280;9776;50.798;6.430;2024-03-23T02:10:16;99598.66;;;9.36;70.08
19286;BME280;9776;50.798;6.430;2024-03-23T02:12:42;99606.53;;;9.28;69.88
19286;BME280;9776;50.798;6.430;2024-03-23T02:15:09;99613.34;;;9.12;69.97
19286;BME280;9776;50.798;6.430;2024-03-23T02:17:35;99618.59;;;9.04;69.94
19286;BME280;9776;50.798;6.430;2024-03-23T02:20:03;99632.06;;;9.01;69.94
19286;BME280;9776;50.798;6.430;2024-03-23T02:22:36;99628.25;;;8.96;69.77
19286;BME280;9776;50.798;6.430;2024-03-23T02:25:06;99635.59;;;8.84;69.89
19286;BME280;9776;50.798;6.430;2024-03-23T02:27:32;99636.72;;;8.82;70.10
19286;BME280;9776;50.798;6.430;2024-03-23T02:29:59;99627.03;;;8.82;69.86
19286;BME280;9776;50.798;6.430;2024-03-23T02:32:25;99635.88;;;8.81;69.80
19286;BME280;9776;50.798;6.430;2024-03-23T02:34:52;99639.84;;;8.77;69.67
19286;BME280;9776;50.798;6.430;2024-03-23T02:37:17;99638.78;;;8.70;69.80
19286;BME280;9776;50.798;6.430;2024-03-23T02:39:44;99636.47;;;8.67;69.63
19286;BME280;9776;50.798;6.430;2024-03-23T02:42:11;99630.22;;;8.68;69.58
19286;BME280;9776;50.798;6.430;2024-03-23T02:44:38;99636.28;;;8.69;69.50
19286;BME280;9776;50.798;6.430;2024-03-23T02:47:05;99625.56;;;8.62;69.35
19286;BME280;9776;50.798;6.430;2024-03-23T02:49:32;99636.09;;;8.62;69.28
19286;BME280;9776;50.798;6.430;2024-03-23T02:51:57;99626.09;;;8.66;69.08
19286;BME280;9776;50.798;6.430;2024-03-23T02:54:24;99612.78;;;8.67;68.88
19286;BME280;9776;50.798;6.430;2024-03-23T02:56:50;99602.81;;;8.79;68.72
19286;BME280;9776;50.798;6.430;2024-03-23T02:59:19;99597.50;;;8.96;68.29
19286;BME280;9776;50.798;6.430;2024-03-23T03:01:44;99601.13;;;9.03;67.80
19286;BME280;9776;50.798;6.430;2024-03-23T03:04:11;99617.41;;;8.99;67.75
19286;BME280;9776;50.798;6.430;2024-03-23T03:06:38;99620.63;;;8.85;68.04
19286;BME280;9776;50.798;6.430;2024-03-23T03:09:06;99612.69;;;8.77;68.30
19286;BME280;9776;50.798;6.430;2024-03-23T03:11:32;99612.31;;;8.72;68.15
19286;BME280;9776;50.798;6.430;2024-03-23T03:13:59;99607.56;;;8.75;67.99
19286;BME280;9776;50.798;6.430;2024-03-23T03:16:27;99614.84;;;8.81;67.68
19286;BME280;9776;50.798;6.430;2024-03-23T03:18:53;99614.22;;;8.87;67.58
19286;BME280;9776;50.798;6.430;2024-03-23T03:21:19;99606.69;;;8.92;67.28
19286;BME280;9776;50.798;6.430;2024-03-23T03:23:47;99593.56;;;9.00;67.19
19286;BME280;9776;50.798;6.430;2024-03-23T03:26:16;99606.28;;;9.13;66.92
19286;BME280;9776;50.798;6.430;2024-03-23T03:28:43;99608.94;;;9.21;66.51
19286;BME280;9776;50.798;6.430;2024-03-23T03:31:09;99609.44;;;9.17;66.51
19286;BME280;9776;50.798;6.430;2024-03-23T03:33:38;99625.06;;;9.18;66.50
19286;BME280;9776;50.798;6.430;2024-03-23T03:36:04;99615.03;;;9.13;66.60
19286;BME280;9776;50.798;6.430;2024-03-23T03:38:31;99615.38;;;9.19;66.43
19286;BME280;9776;50.798;6.430;2024-03-23T03:40:57;99615.41;;;9.27;66.25
19286;BME280;9776;50.798;6.430;2024-03-23T03:43:24;99608.53;;;9.34;66.05
19286;BME280;9776;50.798;6.430;2024-03-23T03:45:52;99615.44;;;9.35;66.02
19286;BME280;9776;50.798;6.430;2024-03-23T03:48:20;99619.88;;;9.34;66.14
19286;BME280;9776;50.798;6.430;2024-03-23T03:50:47;99622.22;;;9.37;65.84
19286;BME280;9776;50.798;6.430;2024-03-23T03:53:14;99620.88;;;9.33;66.22
19286;BME280;9776;50.798;6.430;2024-03-23T03:55:40;99630.94;;;9.38;66.13
19286;BME280;9776;50.798;6.430;2024-03-23T03:58:07;99633.22;;;9.41;65.98
19286;BME280;9776;50.798;6.430;2024-03-23T04:00:33;99632.25;;;9.42;66.02
19286;BME280;9776;50.798;6.430;2024-03-23T04:03:00;99627.81;;;9.42;66.00
19286;BME280;9776;50.798;6.430;2024-03-23T04:05:27;99618.88;;;9.35;66.17
19286;BME280;9776;50.798;6.430;2024-03-23T04:07:55;99616.44;;;9.34;66.36
19286;BME280;9776;50.798;6.430;2024-03-23T04:10:21;99622.31;;;9.28;66.30
19286;BME280;9776;50.798;6.430;2024-03-23T04:12:48;99611.78;;;9.28;66.38
19286;BME280;9776;50.798;6.430;2024-03-23T04:15:14;99621.03;;;9.32;66.14
19286;BME280;9776;50.798;6.430;2024-03-23T04:17:41;99623.47;;;9.25;66.24
19286;BME280;9776;50.798;6.430;2024-03-23T04:20:09;99625.25;;;9.17;66.40
19286;BME280;9776;50.798;6.430;2024-03-23T04:22:39;99629.63;;;9.08;66.71
19286;BME280;9776;50.798;6.430;2024-03-23T04:25:07;99630.59;;;9.07;66.67
19286;BME280;9776;50.798;6.430;2024-03-23T04:27:36;99630.75;;;8.97;66.92
19286;BME280;9776;50.798;6.430;2024-03-23T04:30:03;99631.22;;;9.01;66.89
19286;BME280;9776;50.798;6.430;2024-03-23T04:32:31;99615.31;;;9.02;66.60
19286;BME280;9776;50.798;6.430;2024-03-23T04:34:57;99624.97;;;8.94;66.86
19286;BME280;9776;50.798;6.430;2024-03-23T04:37:24;99616.88;;;8.95;66.83
19286;BME280;9776;50.798;6.430;2024-03-23T04:39:52;99605.09;;;8.99;66.74
19286;BME280;9776;50.798;6.430;2024-03-23T04:42:20;99604.25;;;8.99;66.59
19286;BME280;9776;50.798;6.430;2024-03-23T04:44:47;99609.34;;;9.00;66.44
19286;BME280;9776;50.798;6.430;2024-03-23T04:47:14;99607.41;;;9.02;66.32
19286;BME280;9776;50.798;6.430;2024-03-23T04:49:42;99614.13;;;8.97;66.42
19286;BME280;9776;50.798;6.430;2024-03-23T04:52:09;99612.25;;;8.89;66.71
19286;BME280;9776;50.798;6.430;2024-03-23T04:54:35;99608.78;;;8.89;66.63
19286;BME280;9776;50.798;6.430;2024-03-23T04:57:02;99614.53;;;8.84;66.65
19286;BME280;9776;50.798;6.430;2024-03-23T04:59:30;99618.91;;;8.76;66.85
19286;BME280;9776;50.798;6.430;2024-03-23T05:01:56;99617.38;;;8.65;67.21
19286;BME280;9776;50.798;6.430;2024-03-23T05:04:24;99621.16;;;8.63;67.26
19286;BME280;9776;50.798;6.430;2024-03-23T05:06:49;99620.75;;;8.57;67.28
19286;BME280;9776;50.798;6.430;2024-03-23T05:09:16;99621.94;;;8.63;67.09
19286;BME280;9776;50.798;6.430;2024-03-23T05:11:42;99633.53;;;8.70;67.00
19286;BME280;9776;50.798;6.430;2024-03-23T05:14:09;99623.97;;;8.69;67.01
19286;BME280;9776;50.798;6.430;2024-03-23T05:16:36;99621.34;;;8.69;66.97
19286;BME280;9776;50.798;6.430;2024-03-23T05:19:03;99623.31;;;8.67;67.01
19286;BME280;9776;50.798;6.430;2024-03-23T05:21:29;99610.31;;;8.66;66.94
19286;BME280;9776;50.798;6.430;2024-03-23T05:23:56;99608.44;;;8.58;67.05
19286;BME280;9776;50.798;6.430;2024-03-23T05:26:22;99609.97;;;8.43;67.30
19286;BME280;9776;50.798;6.430;2024-03-23T05:28:49;99606.25;;;8.28;67.85
19286;BME280;9776;50.798;6.430;2024-03-23T05:31:22;99615.75;;;8.11;67.89
19286;BME280;9776;50.798;6.430;2024-03-23T05:33:50;99613.59;;;8.07;68.20
19286;BME280;9776;50.798;6.430;2024-03-23T05:36:17;99614.72;;;8.04;68.11
19286;BME280;9776;50.798;6.430;2024-03-23T05:38:44;99613.16;;;7.93;68.33
19286;BME280;9776;50.798;6.430;2024-03-23T05:41:10;99610.06;;;7.98;68.21
19286;BME280;9776;50.798;6.430;2024-03-23T05:43:40;99616.16;;;7.98;68.19
19286;BME280;9776;50.798;6.430;2024-03-23T05:46:06;99619.75;;;7.97;68.08
19286;BME280;9776;50.798;6.430;2024-03-23T05:48:34;99621.72;;;7.95;68.03
19286;BME280;9776;50.798;6.430;2024-03-23T05:51:02;99624.56;;;7.84;68.50
19286;BME280;9776;50.798;6.430;2024-03-23T05:53:29;99629.28;;;7.81;68.33
19286;BME280;9776;50.798;6.430;2024-03-23T05:56:00;99624.53;;;7.67;68.65
19286;BME280;9776;50.798;6.430;2024-03-23T05:58:29;99618.59;;;7.47;69.05
19286;BME280;9776;50.798;6.430;2024-03-23T06:00:57;99623.00;;;7.47;69.12
19286;BME280;9776;50.798;6.430;2024-03-23T06:03:24;99620.66;;;7.43;69.03
19286;BME280;9776;50.798;6.430;2024-03-23T06:05:50;99621.78;;;7.41;69.02
19286;BME280;9776;50.798;6.430;2024-03-23T06:08:22;99624.00;;;7.36;69.27
19286;BME280;9776;50.798;6.430;2024-03-23T06:10:49;99628.75;;;7.32;69.35
19286;BME280;9776;50.798;6.430;2024-03-23T06:13:17;99637.44;;;7.33;69.25
19286;BME280;9776;50.798;6.430;2024-03-23T06:15:43;99632.91;;;7.25;69.37
19286;BME280;9776;50.798;6.430;2024-03-23T06:18:11;99629.03;;;7.29;69.31
19286;BME280;9776;50.798;6.430;2024-03-23T06:20:38;99628.19;;;7.29;69.48
19286;BME280;9776;50.798;6.430;2024-03-23T06:23:05;99624.63;;;7.30;69.45
19286;BME280;9776;50.798;6.430;2024-03-23T06:25:33;99629.97;;;7.38;69.44
19286;BME280;9776;50.798;6.430;2024-03-23T06:28:00;99635.59;;;7.43;69.32
19286;BME280;9776;50.798;6.430;2024-03-23T06:30:27;99634.91;;;7.41;69.40
19286;BME280;9776;50.798;6.430;2024-03-23T06:32:55;99638.06;;;7.44;69.47
19286;BME280;9776;50.798;6.430;2024-03-23T06:35:20;99648.13;;;7.49;69.29
19286;BME280;9776;50.798;6.430;2024-03-23T06:37:51;99646.88;;;7.53;69.33
19286;BME280;9776;50.798;6.430;2024-03-23T06:40:17;99643.94;;;7.56;69.31
19286;BME280;9776;50.798;6.430;2024-03-23T06:42:49;99653.19;;;7.60;69.37
19286;BME280;9776;50.798;6.430;2024-03-23T06:45:15;99643.50;;;7.61;69.37
19286;BME280;9776;50.798;6.430;2024-03-23T06:47:42;99645.16;;;7.62;69.49
19286;BME280;9776;50.798;6.430;2024-03-23T06:50:08;99645.69;;;7.65;69.43
19286;BME280;9776;50.798;6.430;2024-03-23T06:52:37;99653.69;;;7.73;69.60
19286;BME280;9776;50.798;6.430;2024-03-23T06:55:03;99649.63;;;7.79;69.48
19286;BME280;9776;50.798;6.430;2024-03-23T06:57:31;99655.19;;;7.93;69.20
19286;BME280;9776;50.798;6.430;2024-03-23T06:59:59;99653.78;;;7.99;69.16
19286;BME280;9776;50.798;6.430;2024-03-23T07:02:26;99649.03;;;8.02;69.18
19286;BME280;9776;50.798;6.430;2024-03-23T07:04:52;99655.72;;;8.15;69.05
19286;BME280;9776;50.798;6.430;2024-03-23T07:07:19;99657.16;;;8.27;69.01
19286;BME280;9776;50.798;6.430;2024-03-23T07:09:45;99664.41;;;8.42;68.79
19286;BME280;9776;50.798;6.430;2024-03-23T07:12:12;99675.50;;;8.54;68.80
19286;BME280;9776;50.798;6.430;2024-03-23T07:14:38;99668.69;;;8.69;68.53
19286;BME280;9776;50.798;6.430;2024-03-23T07:17:07;99666.31;;;9.09;68.21
19286;BME280;9776;50.798;6.430;2024-03-23T07:19:32;99670.28;;;9.81;66.82
19286;BME280;9776;50.798;6.430;2024-03-23T07:22:00;99691.34;;;10.63;65.25
19286;BME280;9776;50.798;6.430;2024-03-23T07:24:25;99726.78;;;11.25;63.75
19286;BME280;9776;50.798;6.430;2024-03-23T07:26:52;99726.44;;;10.32;64.39
19286;BME280;9776;50.798;6.430;2024-03-23T07:29:19;99709.53;;;9.25;66.69
19286;BME280;9776;50.798;6.430;2024-03-23T07:31:47;99693.13;;;8.62;67.95
19286;BME280;9776;50.798;6.430;2024-03-23T07:34:14;99691.41;;;8.35;68.55
19286;BME280;9776;50.798;6.430;2024-03-23T07:36:44;99682.59;;;8.26;68.40
19286;BME280;9776;50.798;6.430;2024-03-23T07:39:10;99676.81;;;8.23;68.36
19286;BME280;9776;50.798;6.430;2024-03-23T07:41:37;99678.19;;;8.27;67.90
19286;BME280;9776;50.798;6.430;2024-03-23T07:44:03;99671.56;;;8.58;67.29
19286;BME280;9776;50.798;6.430;2024-03-23T07:46:31;99673.31;;;9.27;65.57
19286;BME280;9776;50.798;6.430;2024-03-23T07:48:57;99673.53;;;10.33;63.39
19286;BME280;9776;50.798;6.430;2024-03-23T07:51:25;99674.81;;;11.57;60.48
19286;BME280;9776;50.798;6.430;2024-03-23T07:53:51;99668.38;;;12.43;58.56
19286;BME280;9776;50.798;6.430;2024-03-23T07:56:19;99668.50;;;13.02;57.47
19286;BME280;9776;50.798;6.430;2024-03-23T07:58:45;99661.78;;;13.73;55.97
19286;BME280;9776;50.798;6.430;2024-03-23T08:01:13;99662.81;;;13.93;55.47
19286;BME280;9776;50.798;6.430;2024-03-23T08:03:41;99664.53;;;14.00;55.90
19286;BME280;9776;50.798;6.430;2024-03-23T08:06:09;99663.81;;;14.49;54.70
19286;BME280;9776;50.798;6.430;2024-03-23T08:08:37;99666.31;;;14.14;55.18
19286;BME280;9776;50.798;6.430;2024-03-23T08:11:04;99670.41;;;14.53;54.81
19286;BME280;9776;50.798;6.430;2024-03-23T08:13:30;99667.72;;;15.02;53.88
19286;BME280;9776;50.798;6.430;2024-03-23T08:15:59;99675.75;;;15.08;53.42
19286;BME280;9776;50.798;6.430;2024-03-23T08:18:25;99681.34;;;14.64;54.12
19286;BME280;9776;50.798;6.430;2024-03-23T08:20:56;99677.38;;;14.18;54.89
19286;BME280;9776;50.798;6.430;2024-03-23T08:23:23;99675.84;;;14.45;54.54
19286;BME280;9776;50.798;6.430;2024-03-23T08:25:57;99677.53;;;14.73;53.23
19286;BME280;9776;50.798;6.430;2024-03-23T08:28:23;99683.44;;;14.48;53.75
19286;BME280;9776;50.798;6.430;2024-03-23T08:30:50;99674.97;;;14.23;54.06
19286;BME280;9776;50.798;6.430;2024-03-23T08:33:15;99672.53;;;14.64;53.06
19286;BME280;9776;50.798;6.430;2024-03-23T08:35:42;99681.56;;;14.27;53.55
19286;BME280;9776;50.798;6.430;2024-03-23T08:38:08;99669.66;;;14.38;53.05
19286;BME280;9776;50.798;6.430;2024-03-23T08:40:35;99679.44;;;14.58;52.11
19286;BME280;9776;50.798;6.430;2024-03-23T08:43:03;99673.91;;;13.96;53.18
19286;BME280;9776;50.798;6.430;2024-03-23T08:45:30;99681.06;;;13.23;54.70
19286;BME280;9776;50.798;6.430;2024-03-23T08:47:57;99671.41;;;12.78;55.83
19286;BME280;9776;50.798;6.430;2024-03-23T08:50:23;99681.56;;;12.51;56.11
19286;BME280;9776;50.798;6.430;2024-03-23T08:52:50;99677.19;;;12.59;55.93
19286;BME280;9776;50.798;6.430;2024-03-23T08:55:16;99685.47;;;12.93;54.94
19286;BME280;9776;50.798;6.430;2024-03-23T08:57:44;99684.75;;;13.22;54.43
19286;BME280;9776;50.798;6.430;2024-03-23T09:00:12;99686.88;;;14.27;52.24
19286;BME280;9776;50.798;6.430;2024-03-23T09:02:39;99687.09;;;14.96;50.49
19286;BME280;9776;50.798;6.430;2024-03-23T09:05:08;99678.84;;;14.84;50.61
19286;BME280;9776;50.798;6.430;2024-03-23T09:07:35;99689.69;;;14.61;50.76
19286;BME280;9776;50.798;6.430;2024-03-23T09:10:01;99675.19;;;14.85;50.37
19286;BME280;9776;50.798;6.430;2024-03-23T09:12:33;99680.16;;;14.95;49.74
19286;BME280;9776;50.798;6.430;2024-03-23T09:14:59;99685.78;;;15.13;49.67
19286;BME280;9776;50.798;6.430;2024-03-23T09:17:27;99658.59;;;16.79;46.34
19286;BME280;9776;50.798;6.430;2024-03-23T09:19:56;99666.53;;;17.19;45.35
19286;BME280;9776;50.798;6.430;2024-03-23T09:22:24;99663.69;;;16.81;46.04
19286;BME280;9776;50.798;6.430;2024-03-23T09:24:49;99656.31;;;16.63;45.70
19286;BME280;9776;50.798;6.430;2024-03-23T09:27:16;99661.22;;;16.86;44.79
19286;BME280;9776;50.798;6.430;2024-03-23T09:29:43;99656.13;;;16.58;44.98
19286;BME280;9776;50.798;6.430;2024-03-23T09:32:10;99662.88;;;15.80;45.74
19286;BME280;9776;50.798;6.430;2024-03-23T09:34:37;99661.38;;;15.58;46.21
19286;BME280;9776;50.798;6.430;2024-03-23T09:37:04;99654.69;;;15.75;46.04
19286;BME280;9776;50.798;6.430;2024-03-23T09:39:30;99663.72;;;15.87;45.69
19286;BME280;9776;50.798;6.430;2024-03-23T09:42:04;99657.63;;;16.13;44.91
19286;BME280;9776;50.798;6.430;2024-03-23T09:44:30;99670.56;;;15.28;46.29
19286;BME280;9776;50.798;6.430;2024-03-23T09:47:00;99665.53;;;14.56;47.55
19286;BME280;9776;50.798;6.430;2024-03-23T09:49:27;99680.22;;;13.81;48.77
19286;BME280;9776;50.798;6.430;2024-03-23T09:51:57;99688.66;;;13.11;50.66
19286;BME280;9776;50.798;6.430;2024-03-23T09:54:24;99689.56;;;12.43;51.74
19286;BME280;9776;50.798;6.430;2024-03-23T09:56:51;99691.66;;;11.56;53.26
19286;BME280;9776;50.798;6.430;2024-03-23T09:59:18;99687.00;;;11.19;54.02
19286;BME280;9776;50.798;6.430;2024-03-23T10:01:45;99692.28;;;11.03;54.46
19286;BME280;9776;50.798;6.430;2024-03-23T10:04:39;99694.63;;;10.98;54.24
19286;BME280;9776;50.798;6.430;2024-03-23T10:07:13;99690.16;;;10.98;54.07
19286;BME280;9776;50.798;6.430;2024-03-23T10:09:39;99685.69;;;11.07;54.04
19286;BME280;9776;50.798;6.430;2024-03-23T10:12:10;99692.13;;;11.12;53.90
19286;BME280;9776;50.798;6.430;2024-03-23T10:14:37;99680.91;;;11.10;53.75
19286;BME280;9776;50.798;6.430;2024-03-23T10:17:12;99684.72;;;11.08;53.68
19286;BME280;9776;50.798;6.430;2024-03-23T10:19:40;99679.22;;;12.71;50.83
19286;BME280;9776;50.798;6.430;2024-03-23T10:22:08;99661.38;;;15.65;45.24
19286;BME280;9776;50.798;6.430;2024-03-23T10:24:36;99661.69;;;17.73;41.26
19286;BME280;9776;50.798;6.430;2024-03-23T10:27:03;99671.69;;;19.09;39.21
19286;BME280;9776;50.798;6.430;2024-03-23T10:29:29;99653.47;;;21.03;36.22
19286;BME280;9776;50.798;6.430;2024-03-23T10:32:08;99663.91;;;23.09;33.43
19286;BME280;9776;50.798;6.430;2024-03-23T10:34:35;99654.59;;;24.20;32.17
19286;BME280;9776;50.798;6.430;2024-03-23T10:37:04;99652.78;;;25.26;30.72
19286;BME280;9776;50.798;6.430;2024-03-23T10:39:33;99649.03;;;24.58;31.06
19286;BME280;9776;50.798;6.430;2024-03-23T10:42:13;99638.25;;;22.23;33.88
19286;BME280;9776;50.798;6.430;2024-03-23T10:44:49;99647.94;;;20.22;37.22
19286;BME280;9776;50.798;6.430;2024-03-23T10:47:16;99649.72;;;18.58;39.69
19286;BME280;9776;50.798;6.430;2024-03-23T10:49:41;99651.53;;;17.31;41.88
19286;BME280;9776;50.798;6.430;2024-03-23T10:52:09;99650.53;;;16.40;43.22
19286;BME280;9776;50.798;6.430;2024-03-23T10:54:35;99659.19;;;15.75;44.11
19286;BME280;9776;50.798;6.430;2024-03-23T10:57:08;99659.94;;;15.28;44.74
19286;BME280;9776;50.798;6.430;2024-03-23T10:59:38;99647.91;;;14.98;45.28
19286;BME280;9776;50.798;6.430;2024-03-23T11:02:06;99653.88;;;14.57;45.72
19286;BME280;9776;50.798;6.430;2024-03-23T11:04:34;99633.81;;;14.76;45.48
19286;BME280;9776;50.798;6.430;2024-03-23T11:07:33;99637.00;;;18.15;39.73
19286;BME280;9776;50.798;6.430;2024-03-23T11:10:26;99629.84;;;21.52;34.97
19286;BME280;9776;50.798;6.430;2024-03-23T11:13:22;99623.44;;;22.37;33.73
19286;BME280;9776;50.798;6.430;2024-03-23T11:15:50;99629.28;;;22.18;34.04
19286;BME280;9776;50.798;6.430;2024-03-23T11:18:20;99629.81;;;21.12;35.32
19286;BME280;9776;50.798;6.430;2024-03-23T11:20:48;99644.97;;;22.37;33.58
19286;BME280;9776;50.798;6.430;2024-03-23T11:23:27;99629.19;;;22.74;33.06
19286;BME280;9776;50.798;6.430;2024-03-23T11:25:54;99631.72;;;24.01;30.73
19286;BME280;9776;50.798;6.430;2024-03-23T11:28:26;99624.09;;;24.14;30.12
19286;BME280;9776;50.798;6.430;2024-03-23T11:30:53;99626.53;;;22.29;31.92
19286;BME280;9776;50.798;6.430;2024-03-23T11:33:23;99607.72;;;20.98;32.58
19286;BME280;9776;50.798;6.430;2024-03-23T11:35:50;99619.63;;;19.30;34.51
19286;BME280;9776;50.798;6.430;2024-03-23T11:38:20;99620.16;;;18.78;35.08
19286;BME280;9776;50.798;6.430;2024-03-23T11:40:51;99622.84;;;18.46;35.34
19286;BME280;9776;50.798;6.430;2024-03-23T11:43:17;99626.16;;;18.48;34.98
19286;BME280;9776;50.798;6.430;2024-03-23T11:45:47;99612.22;;;18.89;34.22
19286;BME280;9776;50.798;6.430;2024-03-23T11:48:14;99607.41;;;18.98;33.39
19286;BME280;9776;50.798;6.430;2024-03-23T11:50:44;99620.72;;;19.04;33.19
19286;BME280;9776;50.798;6.430;2024-03-23T11:53:15;99604.41;;;20.38;31.41
19286;BME280;9776;50.798;6.430;2024-03-23T11:55:45;99609.84;;;19.42;32.63
19286;BME280;9776;50.798;6.430;2024-03-23T11:58:11;99609.59;;;19.62;32.50
19286;BME280;9776;50.798;6.430;2024-03-23T12:00:40;99611.94;;;22.25;29.33
19286;BME280;9776;50.798;6.430;2024-03-23T12:03:08;99611.16;;;23.08;27.85
19286;BME280;9776;50.798;6.430;2024-03-23T12:05:37;99608.72;;;24.78;26.48
19286;BME280;9776;50.798;6.430;2024-03-23T12:08:24;99606.41;;;26.21;24.92
19286;BME280;9776;50.798;6.430;2024-03-23T12:10:52;99599.56;;;27.30;23.62
19286;BME280;9776;50.798;6.430;2024-03-23T12:13:20;99595.19;;;27.34;23.33
19286;BME280;9776;50.798;6.430;2024-03-23T12:15:48;99591.28;;;26.30;24.04
19286;BME280;9776;50.798;6.430;2024-03-23T12:18:23;99607.97;;;25.30;24.98
19286;BME280;9776;50.798;6.430;2024-03-23T12:20:50;99600.19;;;24.60;25.75
19286;BME280;9776;50.798;6.430;2024-03-23T12:23:16;99605.38;;;21.36;29.58
19286;BME280;9776;50.798;6.430;2024-03-23T12:25:57;99624.41;;;18.60;33.34
19286;BME280;9776;50.798;6.430;2024-03-23T12:28:39;99650.00;;;15.90;37.98
19286;BME280;9776;50.798;6.430;2024-03-23T12:31:06;99651.66;;;14.54;41.02
19286;BME280;9776;50.798;6.430;2024-03-23T12:33:34;99621.38;;;13.56;43.28
19286;BME280;9776;50.798;6.430;2024-03-23T12:36:01;99610.25;;;13.46;43.58
19286;BME280;9776;50.798;6.430;2024-03-23T12:38:30;99612.56;;;14.76;41.62
19286;BME280;9776;50.798;6.430;2024-03-23T12:41:00;99599.94;;;15.53;40.43
19286;BME280;9776;50.798;6.430;2024-03-23T12:43:30;99596.38;;;15.80;39.80
19286;BME280;9776;50.798;6.430;2024-03-23T12:45:57;99586.81;;;16.71;38.06
19286;BME280;9776;50.798;6.430;2024-03-23T12:48:23;99583.94;;;18.57;35.37
19286;BME280;9776;50.798;6.430;2024-03-23T12:50:55;99577.50;;;20.45;32.29
19286;BME280;9776;50.798;6.430;2024-03-23T12:53:21;99581.63;;;21.57;31.05
19286;BME280;9776;50.798;6.430;2024-03-23T12:55:48;99582.41;;;21.29;31.42
19286;BME280;9776;50.798;6.430;2024-03-23T12:58:14;99580.09;;;21.09;31.64
19286;BME280;9776;50.798;6.430;2024-03-23T13:00:44;99570.56;;;20.14;32.62
19286;BME280;9776;50.798;6.430;2024-03-23T13:03:13;99578.38;;;18.58;35.25
19286;BME280;9776;50.798;6.430;2024-03-23T13:05:41;99569.88;;;17.30;37.33
19286;BME280;9776;50.798;6.430;2024-03-23T13:08:09;99567.28;;;16.97;38.16
19286;BME280;9776;50.798;6.430;2024-03-23T13:10:35;99560.22;;;18.36;36.16
19286;BME280;9776;50.798;6.430;2024-03-23T13:13:01;99564.19;;;17.64;36.50
19286;BME280;9776;50.798;6.430;2024-03-23T13:15:28;99553.41;;;16.42;38.11
19286;BME280;9776;50.798;6.430;2024-03-23T13:17:57;99556.03;;;15.29;40.16
19286;BME280;9776;50.798;6.430;2024-03-23T13:20:25;99566.91;;;14.59;41.54
19286;BME280;9776;50.798;6.430;2024-03-23T13:22:52;99564.41;;;14.09;42.64
19286;BME280;9776;50.798;6.430;2024-03-23T13:25:21;99562.13;;;13.63;43.51
19286;BME280;9776;50.798;6.430;2024-03-23T13:27:47;99547.56;;;13.38;44.22
19286;BME280;9776;50.798;6.430;2024-03-23T13:30:15;99556.06;;;13.34;44.29
19286;BME280;9776;50.798;6.430;2024-03-23T13:32:41;99557.97;;;13.40;44.33
19286;BME280;9776;50.798;6.430;2024-03-23T13:35:08;99566.13;;;13.24;44.96
19286;BME280;9776;50.798;6.430;2024-03-23T13:37:37;99581.53;;;12.62;46.45
19286;BME280;9776;50.798;6.430;2024-03-23T13:40:14;99571.97;;;12.01;47.53
19286;BME280;9776;50.798;6.430;2024-03-23T13:42:42;99566.66;;;11.78;48.05
19286;BME280;9776;50.798;6.430;2024-03-23T13:45:12;99572.03;;;11.62;48.50
19286;BME280;9776;50.798;6.430;2024-03-23T13:47:45;99566.91;;;11.60;48.63
19286;BME280;9776;50.798;6.430;2024-03-23T13:50:12;99574.97;;;11.67;48.71
19286;BME280;9776;50.798;6.430;2024-03-23T13:52:38;99575.97;;;11.74;48.74
19286;BME280;9776;50.798;6.430;2024-03-23T13:55:06;99574.31;;;11.73;48.66
19286;BME280;9776;50.798;6.430;2024-03-23T13:57:33;99598.13;;;11.65;48.61
19286;BME280;9776;50.798;6.430;2024-03-23T14:00:02;99599.78;;;11.66;48.91
19286;BME280;9776;50.798;6.430;2024-03-23T14:02:30;99587.75;;;11.55;49.08
19286;BME280;9776;50.798;6.430;2024-03-23T14:04:57;99581.13;;;11.59;48.92
19286;BME280;9776;50.798;6.430;2024-03-23T14:07:23;99577.50;;;11.91;48.30
19286;BME280;9776;50.798;6.430;2024-03-23T14:09:50;99576.44;;;12.00;48.18
19286;BME280;9776;50.798;6.430;2024-03-23T14:12:21;99574.66;;;12.15;48.04
19286;BME280;9776;50.798;6.430;2024-03-23T14:14:49;99569.88;;;12.33;47.63